createdAt,value
2023-04-05T00:02:44.652Z,11.23
2023-04-05T00:05:49.855Z,10.63
2023-04-05T00:08:51.506Z,11.35
2023-04-05T00:11:53.086Z,11.32
2023-04-05T00:14:54.660Z,10.85
2023-04-05T00:17:56.324Z,10.75
2023-04-05T00:20:57.896Z,10.70
2023-04-05T00:23:59.936Z,11.80
2023-04-05T00:27:01.591Z,10.63
2023-04-05T00:30:03.291Z,11.95
2023-04-05T00:33:05.582Z,11.60
2023-04-05T00:36:15.224Z,11.43
2023-04-05T00:39:18.409Z,10.77
2023-04-05T00:42:20.245Z,11.70
2023-04-05T00:45:21.832Z,11.40
2023-04-05T00:48:23.948Z,11.15
2023-04-05T00:51:25.830Z,12.45
2023-04-05T00:54:29.506Z,12.27
2023-04-05T00:57:31.513Z,12.88
2023-04-05T01:00:33.448Z,13.07
2023-04-05T01:03:38.885Z,12.35
2023-04-05T01:06:58.483Z,12.25
2023-04-05T01:10:05.466Z,11.88
2023-04-05T01:13:07.121Z,11.88
2023-04-05T01:16:08.683Z,13.30
2023-04-05T01:19:13.186Z,13.52
2023-04-05T01:22:47.744Z,14.27
2023-04-05T01:26:15.815Z,12.98
2023-04-05T01:29:50.352Z,13.23
2023-04-05T01:33:06.875Z,11.80
2023-04-05T01:36:27.150Z,12.82
2023-04-05T01:39:31.004Z,14.27
2023-04-05T01:42:32.647Z,12.93
2023-04-05T01:45:34.196Z,13.75
2023-04-05T01:48:35.796Z,13.85
2023-04-05T01:51:42.051Z,13.00
2023-04-05T01:54:43.972Z,13.00
2023-04-05T01:57:45.731Z,13.48
2023-04-05T02:00:47.307Z,13.20
2023-04-05T02:03:49.013Z,13.98
2023-04-05T02:06:50.804Z,12.95
2023-04-05T02:09:52.328Z,14.40
2023-04-05T02:12:53.925Z,14.25
2023-04-05T02:15:55.544Z,13.73
2023-04-05T02:18:57.970Z,13.80
2023-04-05T02:21:59.582Z,13.60
2023-04-05T02:25:01.608Z,13.50
2023-04-05T02:28:03.192Z,14.13
2023-04-05T02:31:10.649Z,13.75
2023-04-05T02:34:12.197Z,13.88
2023-04-05T02:37:13.768Z,13.93
2023-04-05T02:40:15.608Z,14.52
2023-04-05T02:43:17.387Z,13.85
2023-04-05T02:46:19.031Z,14.10
2023-04-05T02:49:21.357Z,14.50
2023-04-05T02:52:23.473Z,14.43
2023-04-05T02:55:25.088Z,14.57
2023-04-05T02:58:26.628Z,13.02
2023-04-05T03:01:28.278Z,14.15
2023-04-05T03:04:29.868Z,14.45
2023-04-05T03:07:32.891Z,14.73
2023-04-05T03:10:36.607Z,15.20
2023-04-05T03:13:38.530Z,13.80
2023-04-05T03:16:40.377Z,14.57
2023-04-05T03:19:42.544Z,14.90
2023-04-05T03:22:44.668Z,14.57
2023-04-05T03:25:46.232Z,14.13
2023-04-05T03:28:47.852Z,14.85
2023-04-05T03:31:49.730Z,15.27
2023-04-05T03:34:51.366Z,15.00
2023-04-05T03:37:53.072Z,14.75
2023-04-05T03:40:54.714Z,14.95
2023-04-05T03:43:56.254Z,16.10
2023-04-05T03:46:58.117Z,15.65
2023-04-05T03:49:59.673Z,14.88
2023-04-05T03:53:01.434Z,16.55
2023-04-05T03:56:03.128Z,15.82
2023-04-05T03:59:04.717Z,15.38
2023-04-05T04:02:06.292Z,16.30
2023-04-05T04:05:08.064Z,16.50
2023-04-05T04:08:10.021Z,16.38
2023-04-05T04:11:11.799Z,16.38
2023-04-05T04:14:13.341Z,17.15
2023-04-05T04:17:27.191Z,17.23
2023-04-05T04:20:28.973Z,16.15
2023-04-05T04:23:30.534Z,17.00
2023-04-05T04:26:37.426Z,16.83
2023-04-05T04:29:46.458Z,18.23
2023-04-05T04:32:52.554Z,15.77
2023-04-05T04:35:54.674Z,15.82
2023-04-05T04:38:56.520Z,17.15
2023-04-05T04:41:58.546Z,17.13
2023-04-05T04:45:04.235Z,16.90
2023-04-05T04:48:06.180Z,17.17
2023-04-05T04:51:08.374Z,17.23
2023-04-05T04:54:09.919Z,16.90
2023-04-05T04:57:11.468Z,17.88
2023-04-05T05:00:15.285Z,18.85
2023-04-05T05:03:17.171Z,20.05
2023-04-05T05:06:22.087Z,18.73
2023-04-05T05:09:23.737Z,18.83
2023-04-05T05:12:26.697Z,18.17
2023-04-05T05:15:28.223Z,20.17
2023-04-05T05:18:29.844Z,17.83
2023-04-05T05:21:31.424Z,18.83
2023-04-05T05:24:33.021Z,18.63
2023-04-05T05:27:34.733Z,17.80
2023-04-05T05:30:36.351Z,17.02
2023-04-05T05:33:37.940Z,17.58
2023-04-05T05:36:39.480Z,17.92
2023-04-05T05:39:41.035Z,18.38
2023-04-05T05:42:42.649Z,18.27
2023-04-05T05:45:44.211Z,17.67
2023-04-05T05:48:45.940Z,19.20
2023-04-05T05:51:47.468Z,18.08
2023-04-05T05:54:49.142Z,16.80
2023-04-05T05:57:52.766Z,18.20
2023-04-05T06:00:56.374Z,18.63
2023-04-05T06:03:57.977Z,19.73
2023-04-05T06:07:00.556Z,18.65
2023-04-05T06:10:02.119Z,19.05
2023-04-05T06:13:03.786Z,19.58
2023-04-05T06:16:05.738Z,18.95
2023-04-05T06:19:07.310Z,17.60
2023-04-05T06:22:08.901Z,19.58
2023-04-05T06:25:12.280Z,19.35
2023-04-05T06:28:13.826Z,18.90
2023-04-05T06:31:17.218Z,18.05
2023-04-05T06:34:18.889Z,18.85
2023-04-05T06:37:20.658Z,16.67
2023-04-05T06:40:22.272Z,13.57
2023-04-05T06:43:23.833Z,12.60
2023-04-05T06:46:26.366Z,11.40
2023-04-05T06:49:28.034Z,12.35
2023-04-05T06:52:30.296Z,11.30
2023-04-05T06:55:32.537Z,11.05
2023-04-05T06:58:34.244Z,11.90
2023-04-05T07:01:35.857Z,11.63
2023-04-05T07:04:37.572Z,10.07
2023-04-05T07:07:40.871Z,11.45
2023-04-05T07:10:42.628Z,10.57
2023-04-05T07:13:44.551Z,8.02
2023-04-05T07:16:47.930Z,9.40
2023-04-05T07:19:50.445Z,9.43
2023-04-05T07:22:51.997Z,8.73
2023-04-05T07:25:54.396Z,9.18
2023-04-05T07:28:56.023Z,8.27
2023-04-05T07:31:57.563Z,8.73
2023-04-05T07:34:59.149Z,8.55
2023-04-05T07:38:00.722Z,7.78
2023-04-05T07:41:02.295Z,8.40
2023-04-05T07:44:03.985Z,8.35
2023-04-05T07:47:05.569Z,7.63
2023-04-05T07:50:09.515Z,7.50
2023-04-05T07:53:11.191Z,9.52
2023-04-05T07:56:16.189Z,9.93
2023-04-05T07:59:18.119Z,8.93
2023-04-05T08:02:19.716Z,8.23
2023-04-05T08:05:21.375Z,8.70
2023-04-05T08:08:24.894Z,8.50
2023-04-05T08:11:26.493Z,8.75
2023-04-05T08:14:28.344Z,8.60
2023-04-05T08:17:30.266Z,8.80
2023-04-05T08:20:31.974Z,9.63
2023-04-05T08:23:33.593Z,10.75
2023-04-05T08:26:35.197Z,9.93
2023-04-05T08:29:37.404Z,9.60
2023-04-05T08:32:39.052Z,10.85
2023-04-05T08:35:40.951Z,11.02
2023-04-05T08:38:42.604Z,10.18
2023-04-05T08:41:54.727Z,9.48
2023-04-05T08:44:57.957Z,9.63
2023-04-05T08:47:59.578Z,10.13
2023-04-05T08:51:01.166Z,10.77
2023-04-05T08:54:04.793Z,9.85
2023-04-05T08:57:07.503Z,10.55
2023-04-05T09:00:10.386Z,10.07
2023-04-05T09:03:18.303Z,9.20
2023-04-05T09:06:21.332Z,9.70
2023-04-05T09:09:23.314Z,9.30
2023-04-05T09:12:26.558Z,9.27
2023-04-05T09:15:28.172Z,10.05
2023-04-05T09:18:29.899Z,10.50
2023-04-05T09:21:57.421Z,9.80
2023-04-05T09:24:59.025Z,9.68
2023-04-05T09:28:00.779Z,9.38
2023-04-05T09:31:02.335Z,10.60
2023-04-05T09:34:05.358Z,10.18
2023-04-05T09:37:14.512Z,9.50
2023-04-05T09:40:16.088Z,9.98
2023-04-05T09:43:38.274Z,10.13
2023-04-05T09:46:41.769Z,10.45
2023-04-05T09:49:46.305Z,9.10
2023-04-05T09:52:49.128Z,9.65
2023-04-05T09:55:50.676Z,9.73
2023-04-05T09:58:52.806Z,10.10
2023-04-05T10:01:54.367Z,9.60
2023-04-05T10:04:55.953Z,9.20
2023-04-05T10:07:58.064Z,10.30
2023-04-05T10:11:01.421Z,9.23
2023-04-05T10:14:05.901Z,9.98
2023-04-05T10:17:26.035Z,9.07
2023-04-05T10:20:30.617Z,9.80
2023-04-05T10:23:35.490Z,8.68
2023-04-05T10:26:45.529Z,9.60
2023-04-05T10:30:13.221Z,8.68
2023-04-05T10:33:34.888Z,9.57
2023-04-05T10:36:49.564Z,9.70
2023-04-05T10:39:51.499Z,8.65
2023-04-05T10:42:53.203Z,9.65
2023-04-05T10:45:57.148Z,8.85
2023-04-05T10:49:35.154Z,9.25
2023-04-05T10:52:38.362Z,9.82
2023-04-05T10:55:40.204Z,9.88
2023-04-05T10:58:43.457Z,10.57
2023-04-05T11:01:46.359Z,9.75
2023-04-05T11:04:56.069Z,10.27
2023-04-05T11:08:04.605Z,9.88
2023-04-05T11:11:07.060Z,9.93
2023-04-05T11:14:23.470Z,10.02
2023-04-05T11:17:29.131Z,10.07
2023-04-05T11:20:41.614Z,9.68
2023-04-05T11:24:03.682Z,10.10
2023-04-05T11:27:09.639Z,9.63
2023-04-05T11:30:11.569Z,9.77
2023-04-05T11:33:59.995Z,10.55
2023-04-05T11:37:01.589Z,10.15
2023-04-05T11:40:31.031Z,10.13
2023-04-05T11:43:35.080Z,10.63
2023-04-05T11:46:36.719Z,9.85
2023-04-05T11:49:39.278Z,9.00
2023-04-05T11:52:40.840Z,9.18
2023-04-05T11:55:45.103Z,8.85
2023-04-05T11:58:46.858Z,8.90
2023-04-05T12:02:01.670Z,8.68
2023-04-05T12:05:03.489Z,8.35
2023-04-05T12:08:05.191Z,8.82
2023-04-05T12:11:08.974Z,8.73
2023-04-05T12:14:10.617Z,9.05
2023-04-05T12:17:12.192Z,9.20
2023-04-05T12:20:16.339Z,9.38
2023-04-05T12:23:18.194Z,9.38
2023-04-05T12:26:21.177Z,8.95
2023-04-05T12:29:23.210Z,8.68
2023-04-05T12:32:24.906Z,8.60
2023-04-05T12:35:34.826Z,9.13
2023-04-05T12:38:40.539Z,8.90
2023-04-05T12:41:42.314Z,8.85
2023-04-05T12:44:43.876Z,8.82
2023-04-05T12:47:58.542Z,9.40
2023-04-05T12:51:05.011Z,8.90
2023-04-05T12:54:06.613Z,9.43
2023-04-05T12:57:12.097Z,8.55
2023-04-05T13:00:14.267Z,9.50
2023-04-05T13:03:21.049Z,8.32
2023-04-05T13:06:22.970Z,9.65
2023-04-05T13:09:24.568Z,9.02
2023-04-05T13:12:26.117Z,9.02
2023-04-05T13:15:27.682Z,9.10
2023-04-05T13:18:29.747Z,9.48
2023-04-05T13:21:31.344Z,9.20
2023-04-05T13:24:32.871Z,9.20
2023-04-05T13:27:34.502Z,8.40
2023-04-05T13:30:36.200Z,8.60
2023-04-05T13:33:37.786Z,8.50
2023-04-05T13:36:39.345Z,9.18
2023-04-05T13:39:41.142Z,8.82
2023-04-05T13:42:43.054Z,9.32
2023-04-05T13:45:44.606Z,8.50
2023-04-05T13:48:46.143Z,9.25
2023-04-05T13:51:47.805Z,9.00
2023-04-05T13:54:49.383Z,8.73
2023-04-05T13:58:04.392Z,8.52
2023-04-05T14:01:06.017Z,8.77
2023-04-05T14:04:07.584Z,9.05
2023-04-05T14:07:09.510Z,8.98
2023-04-05T14:10:11.581Z,9.40
2023-04-05T14:13:16.131Z,8.88
2023-04-05T14:16:17.772Z,8.98
2023-04-05T14:19:19.556Z,8.77
2023-04-05T14:22:22.165Z,8.15
2023-04-05T14:25:23.733Z,8.50
2023-04-05T14:28:25.284Z,9.50
2023-04-05T14:31:27.139Z,7.70
2023-04-05T14:34:28.764Z,7.90
2023-04-05T14:37:30.531Z,8.95
2023-04-05T14:40:32.132Z,9.18
2023-04-05T14:43:33.802Z,8.75
2023-04-05T14:46:35.467Z,8.75
2023-04-05T14:49:36.964Z,7.47
2023-04-05T14:52:39.842Z,8.95
2023-04-05T14:55:41.389Z,8.93
2023-04-05T14:58:42.924Z,8.82
2023-04-05T15:01:45.539Z,9.07
2023-04-05T15:04:47.154Z,8.52
2023-04-05T15:07:48.743Z,8.23
2023-04-05T15:10:50.362Z,8.70
2023-04-05T15:13:51.937Z,8.60
2023-04-05T15:16:53.553Z,9.00
2023-04-05T15:19:55.201Z,8.07
2023-04-05T15:22:56.863Z,8.63
2023-04-05T15:25:58.466Z,7.70
2023-04-05T15:29:00.322Z,8.43
2023-04-05T15:32:02.918Z,8.32
2023-04-05T15:35:05.119Z,8.55
2023-04-05T15:38:07.141Z,8.65
2023-04-05T15:41:09.083Z,8.30
2023-04-05T15:44:10.734Z,8.63
2023-04-05T15:47:12.273Z,7.78
2023-04-05T15:50:14.059Z,7.53
2023-04-05T15:53:15.633Z,8.35
2023-04-05T15:56:18.057Z,7.82
2023-04-05T15:59:19.682Z,7.40
2023-04-05T16:02:21.273Z,8.73
2023-04-05T16:05:22.815Z,8.30
2023-04-05T16:08:25.152Z,8.18
2023-04-05T16:11:26.806Z,7.82
2023-04-05T16:14:28.402Z,8.48
2023-04-05T16:17:30.438Z,7.47
2023-04-05T16:20:32.053Z,7.60
2023-04-05T16:23:33.793Z,7.93
2023-04-05T16:26:35.820Z,8.05
2023-04-05T16:29:37.652Z,7.68
2023-04-05T16:32:39.327Z,7.93
2023-04-05T16:35:41.268Z,7.75
2023-04-05T16:38:43.773Z,8.05
2023-04-05T16:41:46.179Z,7.22
2023-04-05T16:44:47.904Z,8.25
2023-04-05T16:47:49.538Z,8.13
2023-04-05T16:50:51.596Z,8.50
2023-04-05T16:53:53.524Z,8.30
2023-04-05T16:56:56.260Z,8.00
2023-04-05T16:59:57.796Z,8.10
2023-04-05T17:02:59.610Z,7.63
2023-04-05T17:06:01.672Z,8.38
2023-04-05T17:09:03.720Z,7.97
2023-04-05T17:12:06.104Z,8.90
2023-04-05T17:15:11.459Z,8.52
2023-04-05T17:18:13.063Z,7.47
2023-04-05T17:21:14.655Z,7.82
2023-04-05T17:24:17.577Z,8.35
2023-04-05T17:27:19.140Z,8.05
2023-04-05T17:30:21.000Z,8.80
2023-04-05T17:33:22.650Z,8.40
2023-04-05T17:36:24.218Z,7.72
2023-04-05T17:39:26.212Z,8.48
2023-04-05T17:42:27.814Z,7.53
2023-04-05T17:45:30.487Z,7.70
2023-04-05T17:48:32.860Z,7.40
2023-04-05T17:51:34.648Z,7.75
2023-04-05T17:54:37.071Z,7.75
2023-04-05T17:57:38.709Z,7.93
2023-04-05T18:00:40.431Z,7.55
2023-04-05T18:03:42.714Z,7.18
2023-04-05T18:06:44.284Z,7.90
2023-04-05T18:09:46.338Z,8.38
2023-04-05T18:12:47.888Z,7.70
2023-04-05T18:15:53.680Z,7.88
2023-04-05T18:18:55.354Z,8.18
2023-04-05T18:21:56.895Z,7.88
2023-04-05T18:24:58.430Z,8.60
2023-04-05T18:28:01.306Z,8.30
2023-04-05T18:31:08.918Z,8.13
2023-04-05T18:34:10.459Z,9.15
2023-04-05T18:37:12.426Z,8.52
2023-04-05T18:40:14.431Z,9.50
2023-04-05T18:43:16.191Z,9.07
2023-04-05T18:46:18.199Z,8.40
2023-04-05T18:49:21.135Z,8.90
2023-04-05T18:52:25.812Z,8.80
2023-04-05T18:55:27.512Z,9.13
2023-04-05T18:58:29.093Z,9.43
2023-04-05T19:01:30.780Z,9.63
2023-04-05T19:04:32.478Z,10.75
2023-04-05T19:07:34.060Z,10.48
2023-04-05T19:10:35.659Z,10.50
2023-04-05T19:13:37.309Z,10.48
2023-04-05T19:16:38.903Z,9.73
2023-04-05T19:19:42.250Z,10.35
2023-04-05T19:22:43.803Z,9.35
2023-04-05T19:25:45.593Z,10.55
2023-04-05T19:28:47.239Z,9.57
2023-04-05T19:31:49.755Z,9.75
2023-04-05T19:34:51.434Z,10.02
2023-04-05T19:37:53.109Z,9.82
2023-04-05T19:40:54.805Z,10.30
2023-04-05T19:43:56.331Z,10.13
2023-04-05T19:46:58.255Z,10.73
2023-04-05T19:50:56.746Z,11.70
2023-04-05T19:53:53.945Z,12.25
2023-04-05T19:57:25.191Z,13.00
2023-04-05T20:01:13.781Z,13.23
2023-04-05T20:04:18.776Z,14.18
2023-04-05T20:07:47.773Z,14.40
2023-04-05T20:15:00.278Z,14.15
2023-04-05T20:18:19.904Z,14.60
2023-04-05T20:21:23.836Z,14.80
2023-04-05T20:24:48.597Z,14.65
2023-04-05T20:28:22.716Z,13.85
2023-04-05T20:31:28.807Z,14.70
2023-04-05T20:34:36.217Z,14.45
2023-04-05T20:37:37.760Z,14.23
2023-04-05T20:40:39.329Z,13.73
2023-04-05T20:43:41.793Z,13.88
2023-04-05T20:46:43.406Z,14.32
2023-04-05T20:49:47.444Z,14.10
2023-04-05T20:52:49.008Z,13.80
2023-04-05T20:55:51.130Z,13.68
2023-04-05T20:58:54.428Z,13.65
2023-04-05T21:01:56.055Z,13.93
2023-04-05T21:04:58.093Z,13.77
2023-04-05T21:07:59.848Z,14.98
2023-04-05T21:11:01.673Z,14.10
2023-04-05T21:14:03.358Z,14.27
2023-04-05T21:17:04.939Z,14.77
2023-04-05T21:20:07.033Z,14.90
2023-04-05T21:23:08.598Z,14.75
2023-04-05T21:26:10.249Z,14.88
2023-04-05T21:29:11.893Z,13.82
2023-04-05T21:32:13.521Z,13.88
2023-04-05T21:35:15.140Z,13.40
2023-04-05T21:38:16.706Z,13.65
2023-04-05T21:41:18.310Z,11.90
2023-04-05T21:44:19.895Z,12.90
2023-04-05T21:47:21.490Z,12.80
2023-04-05T21:50:23.324Z,13.13
2023-04-05T21:53:25.459Z,12.18
2023-04-05T21:56:27.163Z,12.50
2023-04-05T21:59:28.796Z,12.18
2023-04-05T22:02:30.424Z,13.18
2023-04-05T22:05:38.188Z,12.82
2023-04-05T22:08:40.584Z,12.65
2023-04-05T22:11:43.685Z,13.43
2023-04-05T22:14:45.235Z,12.98
2023-04-05T22:17:47.135Z,12.23
2023-04-05T22:20:48.745Z,11.48
2023-04-05T22:23:50.449Z,12.40
2023-04-05T22:26:53.283Z,12.55
2023-04-05T22:29:55.057Z,13.18
2023-04-05T22:32:56.865Z,12.15
2023-04-05T22:35:58.628Z,11.82
2023-04-05T22:39:00.218Z,11.82
2023-04-05T22:42:02.197Z,11.82
2023-04-05T22:45:04.758Z,12.63
2023-04-05T22:48:06.512Z,12.82
2023-04-05T22:51:08.296Z,13.00
2023-04-05T22:54:09.852Z,13.88
2023-04-05T22:57:11.754Z,13.02
2023-04-05T23:00:14.719Z,12.57
2023-04-05T23:03:16.291Z,13.30
2023-04-05T23:06:17.840Z,13.00
2023-04-05T23:09:19.509Z,13.25
2023-04-05T23:12:21.131Z,13.95
2023-04-05T23:15:22.767Z,13.50
2023-04-05T23:18:24.382Z,12.48
2023-04-05T23:21:26.373Z,14.07
2023-04-05T23:24:28.159Z,13.98
2023-04-05T23:27:30.034Z,12.57
2023-04-05T23:30:31.610Z,13.98
2023-04-05T23:33:33.150Z,13.85
2023-04-05T23:36:34.678Z,14.05
2023-04-05T23:39:36.279Z,13.00
2023-04-05T23:42:37.831Z,13.02
2023-04-05T23:45:39.372Z,14.65
2023-04-05T23:48:41.287Z,14.10
2023-04-05T23:51:42.992Z,14.02
2023-04-05T23:54:44.526Z,13.60
2023-04-05T23:57:46.256Z,13.40
